sensor_id;sensor_type;location;lat;lon;timestamp;P1;durP1;ratioP1;P2;durP2;ratioP2
39074;SDS011;24826;52.070;20.970;2023-03-01T00:00:20;102.93;;;46.38;;
39074;SDS011;24826;52.070;20.970;2023-03-01T00:03:22;94.30;;;42.58;;
39074;SDS011;24826;52.070;20.970;2023-03-01T00:06:08;92.10;;;41.83;;
39074;SDS011;24826;52.070;20.970;2023-03-01T00:08:58;91.10;;;41.10;;
39074;SDS011;24826;52.070;20.970;2023-03-01T00:11:44;86.00;;;38.80;;
39074;SDS011;24826;52.070;20.970;2023-03-01T00:14:28;88.47;;;39.28;;
39074;SDS011;24826;52.070;20.970;2023-03-01T00:17:13;82.70;;;39.50;;
39074;SDS011;24826;52.070;20.970;2023-03-01T00:19:57;81.38;;;37.83;;
39074;SDS011;24826;52.070;20.970;2023-03-01T00:22:42;75.95;;;36.15;;
39074;SDS011;24826;52.070;20.970;2023-03-01T00:25:27;75.93;;;35.45;;
39074;SDS011;24826;52.070;20.970;2023-03-01T00:28:11;83.05;;;37.78;;
39074;SDS011;24826;52.070;20.970;2023-03-01T00:30:55;66.28;;;32.53;;
39074;SDS011;24826;52.070;20.970;2023-03-01T00:33:40;69.68;;;34.22;;
39074;SDS011;24826;52.070;20.970;2023-03-01T00:36:26;67.13;;;32.88;;
39074;SDS011;24826;52.070;20.970;2023-03-01T00:39:15;61.22;;;32.03;;
39074;SDS011;24826;52.070;20.970;2023-03-01T00:41:59;59.90;;;30.40;;
39074;SDS011;24826;52.070;20.970;2023-03-01T00:44:44;60.90;;;29.95;;
39074;SDS011;24826;52.070;20.970;2023-03-01T00:47:29;56.05;;;29.58;;
39074;SDS011;24826;52.070;20.970;2023-03-01T00:50:13;60.00;;;29.70;;
39074;SDS011;24826;52.070;20.970;2023-03-01T00:52:58;60.78;;;30.60;;
39074;SDS011;24826;52.070;20.970;2023-03-01T00:55:42;52.33;;;28.42;;
39074;SDS011;24826;52.070;20.970;2023-03-01T00:58:27;57.28;;;29.05;;
39074;SDS011;24826;52.070;20.970;2023-03-01T01:01:15;58.50;;;29.55;;
39074;SDS011;24826;52.070;20.970;2023-03-01T01:04:03;57.22;;;28.70;;
39074;SDS011;24826;52.070;20.970;2023-03-01T01:06:49;56.92;;;28.85;;
39074;SDS011;24826;52.070;20.970;2023-03-01T01:09:33;51.95;;;27.83;;
39074;SDS011;24826;52.070;20.970;2023-03-01T01:12:18;56.70;;;28.73;;
39074;SDS011;24826;52.070;20.970;2023-03-01T01:15:03;52.75;;;28.58;;
39074;SDS011;24826;52.070;20.970;2023-03-01T01:17:47;48.83;;;26.60;;
39074;SDS011;24826;52.070;20.970;2023-03-01T01:20:31;56.25;;;27.63;;
39074;SDS011;24826;52.070;20.970;2023-03-01T01:23:16;48.20;;;25.95;;
39074;SDS011;24826;52.070;20.970;2023-03-01T01:26:04;51.17;;;25.02;;
39074;SDS011;24826;52.070;20.970;2023-03-01T01:28:50;49.80;;;26.55;;
39074;SDS011;24826;52.070;20.970;2023-03-01T01:31:36;46.58;;;25.17;;
39074;SDS011;24826;52.070;20.970;2023-03-01T01:34:22;47.38;;;25.08;;
39074;SDS011;24826;52.070;20.970;2023-03-01T01:37:06;49.50;;;27.38;;
39074;SDS011;24826;52.070;20.970;2023-03-01T01:39:51;49.08;;;25.30;;
39074;SDS011;24826;52.070;20.970;2023-03-01T01:42:35;48.50;;;25.33;;
39074;SDS011;24826;52.070;20.970;2023-03-01T01:45:31;53.45;;;24.83;;
39074;SDS011;24826;52.070;20.970;2023-03-01T01:48:20;52.47;;;25.23;;
39074;SDS011;24826;52.070;20.970;2023-03-01T01:51:09;48.15;;;24.30;;
39074;SDS011;24826;52.070;20.970;2023-03-01T01:53:59;49.97;;;24.63;;
39074;SDS011;24826;52.070;20.970;2023-03-01T01:56:47;47.05;;;24.27;;
39074;SDS011;24826;52.070;20.970;2023-03-01T01:59:35;52.60;;;25.85;;
39074;SDS011;24826;52.070;20.970;2023-03-01T02:02:22;44.30;;;23.30;;
39074;SDS011;24826;52.070;20.970;2023-03-01T02:08:00;45.22;;;23.40;;
39074;SDS011;24826;52.070;20.970;2023-03-01T02:10:45;45.85;;;24.45;;
39074;SDS011;24826;52.070;20.970;2023-03-01T02:13:31;47.03;;;24.15;;
39074;SDS011;24826;52.070;20.970;2023-03-01T02:16:16;48.72;;;23.20;;
39074;SDS011;24826;52.070;20.970;2023-03-01T02:19:01;50.05;;;24.50;;
39074;SDS011;24826;52.070;20.970;2023-03-01T02:21:57;46.13;;;24.23;;
39074;SDS011;24826;52.070;20.970;2023-03-01T02:24:57;48.38;;;23.73;;
39074;SDS011;24826;52.070;20.970;2023-03-01T02:30:56;43.10;;;22.60;;
39074;SDS011;24826;52.070;20.970;2023-03-01T02:34:00;48.00;;;23.83;;
39074;SDS011;24826;52.070;20.970;2023-03-01T02:36:51;46.67;;;23.90;;
39074;SDS011;24826;52.070;20.970;2023-03-01T02:39:44;48.78;;;24.35;;
39074;SDS011;24826;52.070;20.970;2023-03-01T02:42:36;49.58;;;26.23;;
39074;SDS011;24826;52.070;20.970;2023-03-01T02:45:29;52.88;;;24.55;;
39074;SDS011;24826;52.070;20.970;2023-03-01T02:48:14;54.88;;;26.33;;
39074;SDS011;24826;52.070;20.970;2023-03-01T02:51:03;51.85;;;24.83;;
39074;SDS011;24826;52.070;20.970;2023-03-01T02:57:01;53.03;;;24.80;;
39074;SDS011;24826;52.070;20.970;2023-03-01T02:59:46;53.20;;;25.30;;
39074;SDS011;24826;52.070;20.970;2023-03-01T03:02:31;49.60;;;26.20;;
39074;SDS011;24826;52.070;20.970;2023-03-01T03:05:24;53.00;;;26.05;;
39074;SDS011;24826;52.070;20.970;2023-03-01T03:08:12;50.78;;;24.98;;
39074;SDS011;24826;52.070;20.970;2023-03-01T03:10:57;51.42;;;25.15;;
39074;SDS011;24826;52.070;20.970;2023-03-01T03:13:41;50.47;;;24.27;;
39074;SDS011;24826;52.070;20.970;2023-03-01T03:16:31;49.45;;;25.75;;
39074;SDS011;24826;52.070;20.970;2023-03-01T03:19:16;49.47;;;24.63;;
39074;SDS011;24826;52.070;20.970;2023-03-01T03:22:03;55.13;;;25.67;;
39074;SDS011;24826;52.070;20.970;2023-03-01T03:24:47;48.50;;;24.52;;
39074;SDS011;24826;52.070;20.970;2023-03-01T03:27:32;51.42;;;25.45;;
39074;SDS011;24826;52.070;20.970;2023-03-01T03:30:17;47.20;;;24.77;;
39074;SDS011;24826;52.070;20.970;2023-03-01T03:33:03;45.53;;;24.98;;
39074;SDS011;24826;52.070;20.970;2023-03-01T03:35:47;51.42;;;25.02;;
39074;SDS011;24826;52.070;20.970;2023-03-01T03:38:32;51.80;;;24.75;;
39074;SDS011;24826;52.070;20.970;2023-03-01T03:41:17;55.28;;;25.40;;
39074;SDS011;24826;52.070;20.970;2023-03-01T03:44:02;50.28;;;25.55;;
39074;SDS011;24826;52.070;20.970;2023-03-01T03:46:46;47.97;;;24.92;;
39074;SDS011;24826;52.070;20.970;2023-03-01T03:49:31;48.03;;;24.60;;
39074;SDS011;24826;52.070;20.970;2023-03-01T03:52:15;48.35;;;24.52;;
39074;SDS011;24826;52.070;20.970;2023-03-01T03:54:59;45.92;;;23.77;;
39074;SDS011;24826;52.070;20.970;2023-03-01T03:57:43;47.45;;;24.75;;
39074;SDS011;24826;52.070;20.970;2023-03-01T04:00:27;44.95;;;24.45;;
39074;SDS011;24826;52.070;20.970;2023-03-01T04:03:12;52.22;;;25.15;;
39074;SDS011;24826;52.070;20.970;2023-03-01T04:05:59;50.50;;;24.90;;
39074;SDS011;24826;52.070;20.970;2023-03-01T04:08:43;50.65;;;24.73;;
39074;SDS011;24826;52.070;20.970;2023-03-01T04:11:27;47.78;;;23.35;;
39074;SDS011;24826;52.070;20.970;2023-03-01T04:14:12;48.15;;;23.20;;
39074;SDS011;24826;52.070;20.970;2023-03-01T04:16:56;48.67;;;24.15;;
39074;SDS011;24826;52.070;20.970;2023-03-01T04:19:41;44.67;;;22.92;;
39074;SDS011;24826;52.070;20.970;2023-03-01T04:22:28;45.42;;;22.50;;
39074;SDS011;24826;52.070;20.970;2023-03-01T04:25:13;46.08;;;23.60;;
39074;SDS011;24826;52.070;20.970;2023-03-01T04:27:58;43.80;;;22.40;;
39074;SDS011;24826;52.070;20.970;2023-03-01T04:30:42;48.60;;;23.20;;
39074;SDS011;24826;52.070;20.970;2023-03-01T04:33:27;41.53;;;22.38;;
39074;SDS011;24826;52.070;20.970;2023-03-01T04:36:11;47.67;;;23.73;;
39074;SDS011;24826;52.070;20.970;2023-03-01T04:38:57;48.08;;;23.15;;
39074;SDS011;24826;52.070;20.970;2023-03-01T04:41:41;40.67;;;21.23;;
39074;SDS011;24826;52.070;20.970;2023-03-01T04:44:27;48.47;;;23.15;;
39074;SDS011;24826;52.070;20.970;2023-03-01T04:47:11;42.58;;;22.40;;
39074;SDS011;24826;52.070;20.970;2023-03-01T04:49:56;43.15;;;23.65;;
39074;SDS011;24826;52.070;20.970;2023-03-01T04:52:40;45.03;;;21.15;;
39074;SDS011;24826;52.070;20.970;2023-03-01T04:55:26;45.67;;;22.95;;
39074;SDS011;24826;52.070;20.970;2023-03-01T04:58:11;45.92;;;23.23;;
39074;SDS011;24826;52.070;20.970;2023-03-01T05:00:55;43.92;;;20.23;;
39074;SDS011;24826;52.070;20.970;2023-03-01T05:03:44;50.25;;;22.50;;
39074;SDS011;24826;52.070;20.970;2023-03-01T05:06:29;46.75;;;22.23;;
39074;SDS011;24826;52.070;20.970;2023-03-01T05:09:13;49.78;;;23.23;;
39074;SDS011;24826;52.070;20.970;2023-03-01T05:11:57;42.45;;;21.02;;
39074;SDS011;24826;52.070;20.970;2023-03-01T05:14:41;43.97;;;23.13;;
39074;SDS011;24826;52.070;20.970;2023-03-01T05:17:26;42.70;;;21.63;;
39074;SDS011;24826;52.070;20.970;2023-03-01T05:20:10;44.40;;;20.80;;
39074;SDS011;24826;52.070;20.970;2023-03-01T05:22:56;42.95;;;21.08;;
39074;SDS011;24826;52.070;20.970;2023-03-01T05:25:42;48.40;;;23.25;;
39074;SDS011;24826;52.070;20.970;2023-03-01T05:28:27;43.08;;;20.92;;
39074;SDS011;24826;52.070;20.970;2023-03-01T05:31:14;40.25;;;20.05;;
39074;SDS011;24826;52.070;20.970;2023-03-01T05:33:59;44.38;;;21.75;;
39074;SDS011;24826;52.070;20.970;2023-03-01T05:36:43;43.42;;;21.85;;
39074;SDS011;24826;52.070;20.970;2023-03-01T05:39:28;41.40;;;21.38;;
39074;SDS011;24826;52.070;20.970;2023-03-01T05:42:13;37.47;;;20.35;;
39074;SDS011;24826;52.070;20.970;2023-03-01T05:44:58;35.88;;;19.42;;
39074;SDS011;24826;52.070;20.970;2023-03-01T05:47:43;41.88;;;21.60;;
39074;SDS011;24826;52.070;20.970;2023-03-01T05:50:29;43.83;;;21.95;;
39074;SDS011;24826;52.070;20.970;2023-03-01T05:53:16;43.08;;;20.88;;
39074;SDS011;24826;52.070;20.970;2023-03-01T05:56:03;39.03;;;21.48;;
39074;SDS011;24826;52.070;20.970;2023-03-01T05:58:48;41.03;;;20.73;;
39074;SDS011;24826;52.070;20.970;2023-03-01T06:01:33;36.70;;;20.27;;
39074;SDS011;24826;52.070;20.970;2023-03-01T06:04:19;42.33;;;21.40;;
39074;SDS011;24826;52.070;20.970;2023-03-01T06:07:03;40.80;;;20.27;;
39074;SDS011;24826;52.070;20.970;2023-03-01T06:09:47;40.42;;;21.65;;
39074;SDS011;24826;52.070;20.970;2023-03-01T06:12:35;38.10;;;21.17;;
39074;SDS011;24826;52.070;20.970;2023-03-01T06:15:21;40.83;;;22.35;;
39074;SDS011;24826;52.070;20.970;2023-03-01T06:18:05;41.38;;;21.23;;
39074;SDS011;24826;52.070;20.970;2023-03-01T06:20:53;39.22;;;20.45;;
39074;SDS011;24826;52.070;20.970;2023-03-01T06:23:38;41.38;;;22.38;;
39074;SDS011;24826;52.070;20.970;2023-03-01T06:26:23;43.63;;;21.90;;
39074;SDS011;24826;52.070;20.970;2023-03-01T06:29:07;41.72;;;21.67;;
39074;SDS011;24826;52.070;20.970;2023-03-01T06:31:52;40.33;;;21.40;;
39074;SDS011;24826;52.070;20.970;2023-03-01T06:34:36;41.00;;;21.83;;
39074;SDS011;24826;52.070;20.970;2023-03-01T06:37:21;42.28;;;21.73;;
39074;SDS011;24826;52.070;20.970;2023-03-01T06:40:05;45.03;;;20.75;;
39074;SDS011;24826;52.070;20.970;2023-03-01T06:42:51;41.95;;;20.55;;
39074;SDS011;24826;52.070;20.970;2023-03-01T06:45:36;42.80;;;22.70;;
39074;SDS011;24826;52.070;20.970;2023-03-01T06:48:21;45.42;;;22.02;;
39074;SDS011;24826;52.070;20.970;2023-03-01T06:51:05;43.00;;;21.80;;
39074;SDS011;24826;52.070;20.970;2023-03-01T06:53:49;41.40;;;21.00;;
39074;SDS011;24826;52.070;20.970;2023-03-01T06:56:34;43.75;;;21.77;;
39074;SDS011;24826;52.070;20.970;2023-03-01T06:59:18;41.67;;;21.50;;
39074;SDS011;24826;52.070;20.970;2023-03-01T07:02:03;39.60;;;20.88;;
39074;SDS011;24826;52.070;20.970;2023-03-01T07:04:51;45.42;;;21.40;;
39074;SDS011;24826;52.070;20.970;2023-03-01T07:07:35;40.35;;;21.05;;
39074;SDS011;24826;52.070;20.970;2023-03-01T07:10:20;38.75;;;21.98;;
39074;SDS011;24826;52.070;20.970;2023-03-01T07:13:05;40.40;;;21.25;;
39074;SDS011;24826;52.070;20.970;2023-03-01T07:15:51;43.22;;;21.65;;
39074;SDS011;24826;52.070;20.970;2023-03-01T07:18:35;41.42;;;21.38;;
39074;SDS011;24826;52.070;20.970;2023-03-01T07:21:19;43.20;;;21.30;;
39074;SDS011;24826;52.070;20.970;2023-03-01T07:24:05;43.45;;;23.25;;
39074;SDS011;24826;52.070;20.970;2023-03-01T07:26:51;41.53;;;21.95;;
39074;SDS011;24826;52.070;20.970;2023-03-01T07:29:35;42.90;;;22.65;;
39074;SDS011;24826;52.070;20.970;2023-03-01T07:32:23;45.70;;;22.15;;
39074;SDS011;24826;52.070;20.970;2023-03-01T07:35:07;39.47;;;20.58;;
39074;SDS011;24826;52.070;20.970;2023-03-01T07:37:52;40.13;;;21.65;;
39074;SDS011;24826;52.070;20.970;2023-03-01T07:40:37;44.03;;;21.75;;
39074;SDS011;24826;52.070;20.970;2023-03-01T07:43:22;40.40;;;20.95;;
39074;SDS011;24826;52.070;20.970;2023-03-01T07:46:06;43.33;;;21.15;;
39074;SDS011;24826;52.070;20.970;2023-03-01T07:48:50;42.83;;;22.30;;
39074;SDS011;24826;52.070;20.970;2023-03-01T07:51:35;37.40;;;20.58;;
39074;SDS011;24826;52.070;20.970;2023-03-01T07:54:19;38.95;;;20.30;;
39074;SDS011;24826;52.070;20.970;2023-03-01T07:57:03;40.47;;;20.95;;
39074;SDS011;24826;52.070;20.970;2023-03-01T07:59:47;37.55;;;19.85;;
39074;SDS011;24826;52.070;20.970;2023-03-01T08:02:32;41.45;;;20.05;;
39074;SDS011;24826;52.070;20.970;2023-03-01T08:05:16;37.00;;;19.63;;
39074;SDS011;24826;52.070;20.970;2023-03-01T08:08:00;31.05;;;18.88;;
39074;SDS011;24826;52.070;20.970;2023-03-01T08:10:44;37.88;;;18.77;;
39074;SDS011;24826;52.070;20.970;2023-03-01T08:13:29;34.70;;;17.85;;
39074;SDS011;24826;52.070;20.970;2023-03-01T08:16:14;33.78;;;18.00;;
39074;SDS011;24826;52.070;20.970;2023-03-01T08:19:03;33.97;;;17.85;;
39074;SDS011;24826;52.070;20.970;2023-03-01T08:21:51;33.17;;;17.77;;
39074;SDS011;24826;52.070;20.970;2023-03-01T08:24:36;32.63;;;16.67;;
39074;SDS011;24826;52.070;20.970;2023-03-01T08:27:20;31.13;;;15.35;;
39074;SDS011;24826;52.070;20.970;2023-03-01T08:30:05;31.73;;;15.48;;
39074;SDS011;24826;52.070;20.970;2023-03-01T08:32:50;28.48;;;14.02;;
39074;SDS011;24826;52.070;20.970;2023-03-01T08:35:34;26.50;;;14.02;;
39074;SDS011;24826;52.070;20.970;2023-03-01T08:38:18;26.52;;;14.48;;
39074;SDS011;24826;52.070;20.970;2023-03-01T08:41:03;23.92;;;13.63;;
39074;SDS011;24826;52.070;20.970;2023-03-01T08:43:47;24.73;;;13.18;;
39074;SDS011;24826;52.070;20.970;2023-03-01T08:46:32;26.13;;;12.35;;
39074;SDS011;24826;52.070;20.970;2023-03-01T08:49:20;19.33;;;11.43;;
39074;SDS011;24826;52.070;20.970;2023-03-01T08:52:04;25.38;;;12.65;;
39074;SDS011;24826;52.070;20.970;2023-03-01T08:54:49;18.20;;;10.45;;
39074;SDS011;24826;52.070;20.970;2023-03-01T08:57:33;22.58;;;11.15;;
39074;SDS011;24826;52.070;20.970;2023-03-01T09:00:18;17.92;;;9.40;;
39074;SDS011;24826;52.070;20.970;2023-03-01T09:03:02;25.55;;;9.13;;
39074;SDS011;24826;52.070;20.970;2023-03-01T09:05:47;18.00;;;9.05;;
39074;SDS011;24826;52.070;20.970;2023-03-01T09:08:37;21.52;;;9.77;;
39074;SDS011;24826;52.070;20.970;2023-03-01T09:11:22;17.60;;;9.90;;
39074;SDS011;24826;52.070;20.970;2023-03-01T09:14:07;15.82;;;9.27;;
39074;SDS011;24826;52.070;20.970;2023-03-01T09:16:51;21.10;;;9.15;;
39074;SDS011;24826;52.070;20.970;2023-03-01T09:19:35;16.00;;;9.27;;
39074;SDS011;24826;52.070;20.970;2023-03-01T09:22:19;15.95;;;8.93;;
39074;SDS011;24826;52.070;20.970;2023-03-01T09:25:04;16.17;;;9.20;;
39074;SDS011;24826;52.070;20.970;2023-03-01T09:27:52;16.73;;;8.55;;
39074;SDS011;24826;52.070;20.970;2023-03-01T09:30:37;17.00;;;9.27;;
39074;SDS011;24826;52.070;20.970;2023-03-01T09:33:21;16.77;;;9.63;;
39074;SDS011;24826;52.070;20.970;2023-03-01T09:36:06;19.45;;;9.63;;
39074;SDS011;24826;52.070;20.970;2023-03-01T09:38:54;21.00;;;10.68;;
39074;SDS011;24826;52.070;20.970;2023-03-01T09:41:43;23.00;;;12.13;;
39074;SDS011;24826;52.070;20.970;2023-03-01T09:47:30;21.10;;;9.65;;
39074;SDS011;24826;52.070;20.970;2023-03-01T09:50:20;19.00;;;10.18;;
39074;SDS011;24826;52.070;20.970;2023-03-01T09:53:06;21.38;;;10.45;;
39074;SDS011;24826;52.070;20.970;2023-03-01T09:55:55;20.98;;;9.85;;
39074;SDS011;24826;52.070;20.970;2023-03-01T10:01:44;18.13;;;9.57;;
39074;SDS011;24826;52.070;20.970;2023-03-01T10:13:28;19.52;;;9.55;;
39074;SDS011;24826;52.070;20.970;2023-03-01T10:19:46;18.73;;;10.15;;
39074;SDS011;24826;52.070;20.970;2023-03-01T10:22:31;20.70;;;9.88;;
39074;SDS011;24826;52.070;20.970;2023-03-01T10:25:17;16.17;;;9.57;;
39074;SDS011;24826;52.070;20.970;2023-03-01T10:31:21;20.13;;;10.52;;
39074;SDS011;24826;52.070;20.970;2023-03-01T10:34:22;17.30;;;9.95;;
39074;SDS011;24826;52.070;20.970;2023-03-01T10:37:15;22.92;;;10.68;;
39074;SDS011;24826;52.070;20.970;2023-03-01T10:40:04;22.65;;;10.57;;
39074;SDS011;24826;52.070;20.970;2023-03-01T10:42:53;23.02;;;11.30;;
39074;SDS011;24826;52.070;20.970;2023-03-01T10:45:43;22.98;;;11.23;;
39074;SDS011;24826;52.070;20.970;2023-03-01T10:48:27;32.35;;;12.68;;
39074;SDS011;24826;52.070;20.970;2023-03-01T10:51:15;22.30;;;11.93;;
39074;SDS011;24826;52.070;20.970;2023-03-01T10:54:03;23.83;;;12.85;;
39074;SDS011;24826;52.070;20.970;2023-03-01T10:56:54;22.05;;;12.15;;
39074;SDS011;24826;52.070;20.970;2023-03-01T10:59:40;19.88;;;11.30;;
39074;SDS011;24826;52.070;20.970;2023-03-01T11:02:28;21.40;;;11.05;;
39074;SDS011;24826;52.070;20.970;2023-03-01T11:07:59;20.05;;;11.80;;
39074;SDS011;24826;52.070;20.970;2023-03-01T11:10:45;21.23;;;10.48;;
39074;SDS011;24826;52.070;20.970;2023-03-01T11:13:29;19.63;;;10.80;;
39074;SDS011;24826;52.070;20.970;2023-03-01T11:16:14;20.65;;;11.45;;
39074;SDS011;24826;52.070;20.970;2023-03-01T11:18:59;20.48;;;10.85;;
39074;SDS011;24826;52.070;20.970;2023-03-01T11:22:06;23.90;;;11.60;;
39074;SDS011;24826;52.070;20.970;2023-03-01T11:24:55;22.70;;;10.75;;
39074;SDS011;24826;52.070;20.970;2023-03-01T11:27:43;23.15;;;10.80;;
39074;SDS011;24826;52.070;20.970;2023-03-01T11:33:43;20.13;;;10.80;;
39074;SDS011;24826;52.070;20.970;2023-03-01T11:48:50;17.83;;;10.25;;
39074;SDS011;24826;52.070;20.970;2023-03-01T11:58:10;22.08;;;10.38;;
39074;SDS011;24826;52.070;20.970;2023-03-01T12:04:14;18.17;;;10.07;;
39074;SDS011;24826;52.070;20.970;2023-03-01T12:07:05;21.08;;;10.32;;
39074;SDS011;24826;52.070;20.970;2023-03-01T12:25:38;18.65;;;9.95;;
39074;SDS011;24826;52.070;20.970;2023-03-01T12:41:11;19.35;;;10.63;;
39074;SDS011;24826;52.070;20.970;2023-03-01T12:53:26;18.27;;;10.10;;
39074;SDS011;24826;52.070;20.970;2023-03-01T12:56:20;19.50;;;10.80;;
39074;SDS011;24826;52.070;20.970;2023-03-01T13:02:49;20.20;;;10.38;;
39074;SDS011;24826;52.070;20.970;2023-03-01T13:05:48;19.58;;;10.45;;
39074;SDS011;24826;52.070;20.970;2023-03-01T13:08:56;18.63;;;9.63;;
39074;SDS011;24826;52.070;20.970;2023-03-01T13:11:47;19.08;;;10.77;;
39074;SDS011;24826;52.070;20.970;2023-03-01T13:17:40;19.80;;;11.05;;
39074;SDS011;24826;52.070;20.970;2023-03-01T13:23:26;19.98;;;11.18;;
39074;SDS011;24826;52.070;20.970;2023-03-01T13:26:15;19.77;;;10.85;;
39074;SDS011;24826;52.070;20.970;2023-03-01T13:29:01;21.90;;;11.35;;
39074;SDS011;24826;52.070;20.970;2023-03-01T13:34:40;17.38;;;10.45;;
39074;SDS011;24826;52.070;20.970;2023-03-01T13:37:30;21.05;;;11.25;;
39074;SDS011;24826;52.070;20.970;2023-03-01T13:43:26;23.17;;;11.07;;
39074;SDS011;24826;52.070;20.970;2023-03-01T13:46:20;22.05;;;12.45;;
39074;SDS011;24826;52.070;20.970;2023-03-01T13:49:09;20.10;;;10.90;;
39074;SDS011;24826;52.070;20.970;2023-03-01T13:51:58;21.75;;;11.05;;
39074;SDS011;24826;52.070;20.970;2023-03-01T13:54:43;24.75;;;11.90;;
39074;SDS011;24826;52.070;20.970;2023-03-01T13:57:30;21.10;;;11.93;;
39074;SDS011;24826;52.070;20.970;2023-03-01T14:00:33;19.05;;;11.77;;
39074;SDS011;24826;52.070;20.970;2023-03-01T14:03:20;20.02;;;11.90;;
39074;SDS011;24826;52.070;20.970;2023-03-01T14:06:05;19.67;;;11.32;;
39074;SDS011;24826;52.070;20.970;2023-03-01T14:09:00;22.38;;;11.55;;
39074;SDS011;24826;52.070;20.970;2023-03-01T14:21:47;20.20;;;11.48;;
39074;SDS011;24826;52.070;20.970;2023-03-01T14:24:32;19.90;;;11.10;;
39074;SDS011;24826;52.070;20.970;2023-03-01T14:27:21;21.17;;;11.57;;
39074;SDS011;24826;52.070;20.970;2023-03-01T14:30:10;21.58;;;12.45;;
39074;SDS011;24826;52.070;20.970;2023-03-01T14:33:04;23.38;;;12.60;;
39074;SDS011;24826;52.070;20.970;2023-03-01T14:35:58;22.45;;;12.20;;
39074;SDS011;24826;52.070;20.970;2023-03-01T14:38:45;21.58;;;13.05;;
39074;SDS011;24826;52.070;20.970;2023-03-01T14:41:34;20.88;;;12.48;;
39074;SDS011;24826;52.070;20.970;2023-03-01T14:44:21;22.92;;;13.10;;
39074;SDS011;24826;52.070;20.970;2023-03-01T14:47:13;24.02;;;13.07;;
39074;SDS011;24826;52.070;20.970;2023-03-01T14:50:05;23.63;;;13.10;;
39074;SDS011;24826;52.070;20.970;2023-03-01T14:52:54;22.38;;;12.82;;
39074;SDS011;24826;52.070;20.970;2023-03-01T14:55:41;24.63;;;13.20;;
39074;SDS011;24826;52.070;20.970;2023-03-01T14:58:31;22.70;;;13.32;;
39074;SDS011;24826;52.070;20.970;2023-03-01T15:01:17;25.02;;;13.55;;
39074;SDS011;24826;52.070;20.970;2023-03-01T15:04:02;26.35;;;13.98;;
39074;SDS011;24826;52.070;20.970;2023-03-01T15:06:47;26.45;;;14.32;;
39074;SDS011;24826;52.070;20.970;2023-03-01T15:09:36;25.40;;;13.35;;
39074;SDS011;24826;52.070;20.970;2023-03-01T15:12:24;23.85;;;13.57;;
39074;SDS011;24826;52.070;20.970;2023-03-01T15:18:22;28.25;;;13.52;;
39074;SDS011;24826;52.070;20.970;2023-03-01T15:24:28;26.13;;;14.60;;
39074;SDS011;24826;52.070;20.970;2023-03-01T15:27:17;25.38;;;14.93;;
39074;SDS011;24826;52.070;20.970;2023-03-01T15:30:03;28.70;;;14.75;;
39074;SDS011;24826;52.070;20.970;2023-03-01T15:32:48;28.55;;;14.80;;
39074;SDS011;24826;52.070;20.970;2023-03-01T15:35:39;28.52;;;15.63;;
39074;SDS011;24826;52.070;20.970;2023-03-01T15:41:22;26.73;;;14.00;;
39074;SDS011;24826;52.070;20.970;2023-03-01T15:44:16;25.27;;;14.02;;
39074;SDS011;24826;52.070;20.970;2023-03-01T15:47:22;28.02;;;14.77;;
39074;SDS011;24826;52.070;20.970;2023-03-01T15:50:25;27.58;;;14.35;;
39074;SDS011;24826;52.070;20.970;2023-03-01T15:53:12;27.88;;;14.45;;
39074;SDS011;24826;52.070;20.970;2023-03-01T15:56:01;28.33;;;14.80;;
39074;SDS011;24826;52.070;20.970;2023-03-01T15:58:45;32.05;;;14.93;;
39074;SDS011;24826;52.070;20.970;2023-03-01T16:01:30;28.45;;;14.70;;
39074;SDS011;24826;52.070;20.970;2023-03-01T16:04:16;28.95;;;14.15;;
39074;SDS011;24826;52.070;20.970;2023-03-01T16:07:05;30.58;;;14.82;;
39074;SDS011;24826;52.070;20.970;2023-03-01T16:09:49;34.47;;;14.63;;
39074;SDS011;24826;52.070;20.970;2023-03-01T16:12:34;36.45;;;15.50;;
39074;SDS011;24826;52.070;20.970;2023-03-01T16:15:20;36.55;;;15.77;;
39074;SDS011;24826;52.070;20.970;2023-03-01T16:18:06;38.15;;;14.75;;
39074;SDS011;24826;52.070;20.970;2023-03-01T16:20:54;30.70;;;14.40;;
39074;SDS011;24826;52.070;20.970;2023-03-01T16:23:39;41.45;;;16.00;;
39074;SDS011;24826;52.070;20.970;2023-03-01T16:26:23;35.03;;;13.00;;
39074;SDS011;24826;52.070;20.970;2023-03-01T16:29:07;33.15;;;13.25;;
39074;SDS011;24826;52.070;20.970;2023-03-01T16:31:51;34.95;;;15.50;;
39074;SDS011;24826;52.070;20.970;2023-03-01T16:34:36;39.63;;;15.55;;
39074;SDS011;24826;52.070;20.970;2023-03-01T16:37:21;31.67;;;16.17;;
39074;SDS011;24826;52.070;20.970;2023-03-01T16:40:07;34.22;;;16.50;;
39074;SDS011;24826;52.070;20.970;2023-03-01T16:43:01;37.85;;;17.38;;
39074;SDS011;24826;52.070;20.970;2023-03-01T16:45:46;34.33;;;17.90;;
39074;SDS011;24826;52.070;20.970;2023-03-01T16:48:30;34.67;;;17.13;;
39074;SDS011;24826;52.070;20.970;2023-03-01T16:51:15;33.25;;;16.88;;
39074;SDS011;24826;52.070;20.970;2023-03-01T16:53:59;35.45;;;17.30;;
39074;SDS011;24826;52.070;20.970;2023-03-01T16:56:44;33.17;;;17.05;;
39074;SDS011;24826;52.070;20.970;2023-03-01T16:59:28;33.47;;;15.65;;
39074;SDS011;24826;52.070;20.970;2023-03-01T17:02:13;35.15;;;17.83;;
39074;SDS011;24826;52.070;20.970;2023-03-01T17:04:58;37.22;;;17.77;;
39074;SDS011;24826;52.070;20.970;2023-03-01T17:07:43;39.85;;;18.95;;
39074;SDS011;24826;52.070;20.970;2023-03-01T17:10:27;38.60;;;18.88;;
39074;SDS011;24826;52.070;20.970;2023-03-01T17:13:11;39.63;;;18.38;;
39074;SDS011;24826;52.070;20.970;2023-03-01T17:15:56;40.00;;;17.45;;
39074;SDS011;24826;52.070;20.970;2023-03-01T17:18:40;33.97;;;17.30;;
39074;SDS011;24826;52.070;20.970;2023-03-01T17:21:25;32.72;;;15.15;;
39074;SDS011;24826;52.070;20.970;2023-03-01T17:24:10;36.60;;;17.45;;
39074;SDS011;24826;52.070;20.970;2023-03-01T17:26:55;39.53;;;17.45;;
39074;SDS011;24826;52.070;20.970;2023-03-01T17:29:40;30.85;;;16.17;;
39074;SDS011;24826;52.070;20.970;2023-03-01T17:32:24;41.47;;;18.05;;
39074;SDS011;24826;52.070;20.970;2023-03-01T17:35:09;35.55;;;17.23;;
39074;SDS011;24826;52.070;20.970;2023-03-01T17:37:55;37.40;;;16.80;;
39074;SDS011;24826;52.070;20.970;2023-03-01T17:40:39;33.33;;;17.58;;
39074;SDS011;24826;52.070;20.970;2023-03-01T17:43:24;46.30;;;22.20;;
39074;SDS011;24826;52.070;20.970;2023-03-01T17:46:09;54.72;;;23.25;;
39074;SDS011;24826;52.070;20.970;2023-03-01T17:48:54;49.45;;;24.58;;
39074;SDS011;24826;52.070;20.970;2023-03-01T17:51:39;51.90;;;25.30;;
39074;SDS011;24826;52.070;20.970;2023-03-01T17:54:23;56.55;;;27.60;;
39074;SDS011;24826;52.070;20.970;2023-03-01T17:57:07;64.38;;;28.38;;
39074;SDS011;24826;52.070;20.970;2023-03-01T17:59:51;75.45;;;32.70;;
39074;SDS011;24826;52.070;20.970;2023-03-01T18:02:37;69.50;;;33.33;;
39074;SDS011;24826;52.070;20.970;2023-03-01T18:05:22;93.82;;;39.40;;
39074;SDS011;24826;52.070;20.970;2023-03-01T18:08:06;103.15;;;40.83;;
39074;SDS011;24826;52.070;20.970;2023-03-01T18:10:56;95.00;;;40.70;;